SBBRYZYX KWBCYMYX SOZZMAMX SYZZMAMX TBPBYMYX TNCCYMYX TNCAYMYX TFFFYMYX TFFRYMYX TTPPYMYX EGZZMNAM

280400 SMJPYMYX

FTSM20 SMJP 280400

TAF SMJP 280400Z 2806/2906 05004KT 9000 FEW012 SCT030 TX30/2817Z TN23/2810Z TEMPO 2809/2811 3000 BR BECMG 2812/2813 06014KT SCT015 FEW018TCU SCT030 TEMPO 2814/2819 VRB12G23KT 5000 SHRA FM290100 03004KT 9999 FEW012 SCT035=

 

 

TAF SMZO 280400Z 2806/2906 05004KT 9000 FEW015 SCT030 TX30/2817Z TN25/2810Z BECMG 2812/2813 06014KT SCT015 FEW018TCU SCT030 TEMPO 2814/2819 5000 SHRA FM290100 03004KT 9999 SCT035=

 

 

 

 

TW

MARCH 2016